sensor_id;sensor_type;location;lat;lon;timestamp;P1;durP1;ratioP1;P2;durP2;ratioP2
34585;SDS011;20816;50.950;11.108;2022-12-05T00:01:10;17.47;;;8.87;;
34585;SDS011;20816;50.950;11.108;2022-12-05T00:03:58;16.17;;;7.23;;
34585;SDS011;20816;50.950;11.108;2022-12-05T00:06:27;14.20;;;8.10;;
34585;SDS011;20816;50.950;11.108;2022-12-05T00:08:54;28.37;;;9.37;;
34585;SDS011;20816;50.950;11.108;2022-12-05T00:11:22;18.10;;;9.93;;
34585;SDS011;20816;50.950;11.108;2022-12-05T00:13:51;20.47;;;9.80;;
34585;SDS011;20816;50.950;11.108;2022-12-05T00:16:20;37.03;;;9.47;;
34585;SDS011;20816;50.950;11.108;2022-12-05T00:18:48;24.03;;;9.33;;
34585;SDS011;20816;50.950;11.108;2022-12-05T00:21:16;26.83;;;9.63;;
34585;SDS011;20816;50.950;11.108;2022-12-05T00:23:45;14.43;;;8.83;;
34585;SDS011;20816;50.950;11.108;2022-12-05T00:26:12;17.60;;;8.03;;
34585;SDS011;20816;50.950;11.108;2022-12-05T00:28:39;19.90;;;8.07;;
34585;SDS011;20816;50.950;11.108;2022-12-05T00:31:10;33.60;;;9.40;;
34585;SDS011;20816;50.950;11.108;2022-12-05T00:33:38;23.20;;;9.50;;
34585;SDS011;20816;50.950;11.108;2022-12-05T00:36:06;15.83;;;8.30;;
34585;SDS011;20816;50.950;11.108;2022-12-05T00:38:35;22.03;;;9.07;;
34585;SDS011;20816;50.950;11.108;2022-12-05T00:41:03;20.27;;;9.33;;
34585;SDS011;20816;50.950;11.108;2022-12-05T00:43:34;15.90;;;7.43;;
34585;SDS011;20816;50.950;11.108;2022-12-05T00:46:01;14.37;;;7.67;;
34585;SDS011;20816;50.950;11.108;2022-12-05T00:48:29;22.83;;;9.87;;
34585;SDS011;20816;50.950;11.108;2022-12-05T00:51:03;17.20;;;7.73;;
34585;SDS011;20816;50.950;11.108;2022-12-05T00:53:31;23.00;;;10.00;;
34585;SDS011;20816;50.950;11.108;2022-12-05T00:56:01;18.00;;;8.03;;
34585;SDS011;20816;50.950;11.108;2022-12-05T00:58:32;23.20;;;10.13;;
34585;SDS011;20816;50.950;11.108;2022-12-05T01:03:35;20.67;;;7.33;;
34585;SDS011;20816;50.950;11.108;2022-12-05T01:06:01;17.57;;;8.23;;
34585;SDS011;20816;50.950;11.108;2022-12-05T01:08:29;15.77;;;8.73;;
34585;SDS011;20816;50.950;11.108;2022-12-05T01:10:56;16.50;;;6.77;;
34585;SDS011;20816;50.950;11.108;2022-12-05T01:13:23;15.00;;;7.23;;
34585;SDS011;20816;50.950;11.108;2022-12-05T01:15:51;19.00;;;7.13;;
34585;SDS011;20816;50.950;11.108;2022-12-05T01:18:18;21.17;;;6.83;;
34585;SDS011;20816;50.950;11.108;2022-12-05T01:20:46;14.90;;;8.27;;
34585;SDS011;20816;50.950;11.108;2022-12-05T01:23:14;15.63;;;7.07;;
34585;SDS011;20816;50.950;11.108;2022-12-05T01:25:41;11.13;;;6.37;;
34585;SDS011;20816;50.950;11.108;2022-12-05T01:28:09;19.17;;;7.57;;
34585;SDS011;20816;50.950;11.108;2022-12-05T01:30:37;11.43;;;6.77;;
34585;SDS011;20816;50.950;11.108;2022-12-05T01:33:08;11.47;;;5.63;;
34585;SDS011;20816;50.950;11.108;2022-12-05T01:35:35;11.80;;;6.50;;
34585;SDS011;20816;50.950;11.108;2022-12-05T01:38:03;12.70;;;6.07;;
34585;SDS011;20816;50.950;11.108;2022-12-05T01:40:31;14.70;;;5.93;;
34585;SDS011;20816;50.950;11.108;2022-12-05T01:43:01;13.87;;;6.43;;
34585;SDS011;20816;50.950;11.108;2022-12-05T01:45:39;10.67;;;6.40;;
34585;SDS011;20816;50.950;11.108;2022-12-05T01:48:09;14.40;;;6.07;;
34585;SDS011;20816;50.950;11.108;2022-12-05T01:50:57;15.53;;;5.93;;
34585;SDS011;20816;50.950;11.108;2022-12-05T01:53:25;8.97;;;5.70;;
34585;SDS011;20816;50.950;11.108;2022-12-05T01:55:53;15.17;;;6.93;;
34585;SDS011;20816;50.950;11.108;2022-12-05T01:58:20;13.77;;;7.00;;
34585;SDS011;20816;50.950;11.108;2022-12-05T02:00:50;16.23;;;7.40;;
34585;SDS011;20816;50.950;11.108;2022-12-05T02:03:17;15.00;;;6.87;;
34585;SDS011;20816;50.950;11.108;2022-12-05T02:05:46;17.10;;;6.00;;
34585;SDS011;20816;50.950;11.108;2022-12-05T02:08:16;15.17;;;6.23;;
34585;SDS011;20816;50.950;11.108;2022-12-05T02:10:50;11.90;;;5.97;;
34585;SDS011;20816;50.950;11.108;2022-12-05T02:16:00;11.97;;;5.80;;
34585;SDS011;20816;50.950;11.108;2022-12-05T02:18:33;8.07;;;5.20;;
34585;SDS011;20816;50.950;11.108;2022-12-05T02:21:33;12.33;;;6.10;;
34585;SDS011;20816;50.950;11.108;2022-12-05T02:24:06;9.77;;;6.13;;
34585;SDS011;20816;50.950;11.108;2022-12-05T02:43:28;9.13;;;4.33;;
34585;SDS011;20816;50.950;11.108;2022-12-05T02:46:00;14.90;;;6.77;;
34585;SDS011;20816;50.950;11.108;2022-12-05T02:48:34;13.50;;;5.73;;
34585;SDS011;20816;50.950;11.108;2022-12-05T02:51:02;10.63;;;5.60;;
34585;SDS011;20816;50.950;11.108;2022-12-05T02:53:31;17.43;;;5.47;;
34585;SDS011;20816;50.950;11.108;2022-12-05T02:56:00;14.30;;;6.20;;
34585;SDS011;20816;50.950;11.108;2022-12-05T02:58:32;11.20;;;5.73;;
34585;SDS011;20816;50.950;11.108;2022-12-05T03:01:03;11.03;;;5.57;;
34585;SDS011;20816;50.950;11.108;2022-12-05T03:03:30;7.13;;;5.17;;
34585;SDS011;20816;50.950;11.108;2022-12-05T03:08:58;12.50;;;6.30;;
34585;SDS011;20816;50.950;11.108;2022-12-05T03:11:27;10.87;;;5.03;;
34585;SDS011;20816;50.950;11.108;2022-12-05T03:13:59;9.30;;;6.23;;
34585;SDS011;20816;50.950;11.108;2022-12-05T03:16:36;8.30;;;4.87;;
34585;SDS011;20816;50.950;11.108;2022-12-05T03:19:10;16.67;;;6.53;;
34585;SDS011;20816;50.950;11.108;2022-12-05T03:24:54;21.33;;;5.77;;
34585;SDS011;20816;50.950;11.108;2022-12-05T03:27:24;10.00;;;6.20;;
34585;SDS011;20816;50.950;11.108;2022-12-05T03:30:00;8.70;;;4.63;;
34585;SDS011;20816;50.950;11.108;2022-12-05T03:35:48;10.73;;;5.40;;
34585;SDS011;20816;50.950;11.108;2022-12-05T03:38:57;9.43;;;5.23;;
34585;SDS011;20816;50.950;11.108;2022-12-05T03:44:27;23.97;;;5.80;;
34585;SDS011;20816;50.950;11.108;2022-12-05T03:47:03;13.53;;;6.33;;
34585;SDS011;20816;50.950;11.108;2022-12-05T03:49:36;26.73;;;6.63;;
34585;SDS011;20816;50.950;11.108;2022-12-05T03:54:39;10.50;;;6.27;;
34585;SDS011;20816;50.950;11.108;2022-12-05T03:57:11;9.47;;;5.87;;
34585;SDS011;20816;50.950;11.108;2022-12-05T04:00:04;18.07;;;5.23;;
34585;SDS011;20816;50.950;11.108;2022-12-05T04:02:41;10.33;;;6.47;;
34585;SDS011;20816;50.950;11.108;2022-12-05T04:05:35;13.03;;;5.53;;
34585;SDS011;20816;50.950;11.108;2022-12-05T04:08:51;12.93;;;5.70;;
34585;SDS011;20816;50.950;11.108;2022-12-05T04:11:02;10.90;;;4.77;;
34585;SDS011;20816;50.950;11.108;2022-12-05T04:13:39;13.87;;;5.80;;
34585;SDS011;20816;50.950;11.108;2022-12-05T04:16:14;14.90;;;7.40;;
34585;SDS011;20816;50.950;11.108;2022-12-05T04:21:39;10.67;;;5.33;;
34585;SDS011;20816;50.950;11.108;2022-12-05T04:24:29;10.30;;;5.80;;
34585;SDS011;20816;50.950;11.108;2022-12-05T04:30:04;10.97;;;5.60;;
34585;SDS011;20816;50.950;11.108;2022-12-05T04:32:51;13.17;;;6.33;;
34585;SDS011;20816;50.950;11.108;2022-12-05T04:35:39;16.90;;;5.87;;
34585;SDS011;20816;50.950;11.108;2022-12-05T04:38:14;8.17;;;4.77;;
34585;SDS011;20816;50.950;11.108;2022-12-05T04:40:47;14.87;;;4.90;;
34585;SDS011;20816;50.950;11.108;2022-12-05T04:43:17;19.03;;;6.43;;
34585;SDS011;20816;50.950;11.108;2022-12-05T04:45:46;15.90;;;5.43;;
34585;SDS011;20816;50.950;11.108;2022-12-05T04:48:15;14.73;;;6.77;;
34585;SDS011;20816;50.950;11.108;2022-12-05T04:50:44;31.47;;;6.93;;
34585;SDS011;20816;50.950;11.108;2022-12-05T04:53:13;22.17;;;6.00;;
34585;SDS011;20816;50.950;11.108;2022-12-05T04:55:43;17.83;;;7.03;;
34585;SDS011;20816;50.950;11.108;2022-12-05T04:58:18;10.10;;;4.33;;
34585;SDS011;20816;50.950;11.108;2022-12-05T05:03:41;13.27;;;4.90;;
34585;SDS011;20816;50.950;11.108;2022-12-05T05:06:13;15.33;;;5.27;;
34585;SDS011;20816;50.950;11.108;2022-12-05T05:08:48;12.23;;;6.00;;
34585;SDS011;20816;50.950;11.108;2022-12-05T05:13:49;7.57;;;5.10;;
34585;SDS011;20816;50.950;11.108;2022-12-05T05:16:17;10.70;;;5.40;;
34585;SDS011;20816;50.950;11.108;2022-12-05T05:18:46;12.57;;;5.60;;
34585;SDS011;20816;50.950;11.108;2022-12-05T05:24:09;13.53;;;5.43;;
34585;SDS011;20816;50.950;11.108;2022-12-05T05:26:38;8.23;;;3.90;;
34585;SDS011;20816;50.950;11.108;2022-12-05T05:29:06;8.43;;;4.40;;
34585;SDS011;20816;50.950;11.108;2022-12-05T05:31:32;12.73;;;5.67;;
34585;SDS011;20816;50.950;11.108;2022-12-05T05:34:00;7.93;;;4.37;;
34585;SDS011;20816;50.950;11.108;2022-12-05T05:36:34;8.40;;;4.83;;
34585;SDS011;20816;50.950;11.108;2022-12-05T05:39:02;8.93;;;4.83;;
34585;SDS011;20816;50.950;11.108;2022-12-05T05:41:30;10.93;;;4.80;;
34585;SDS011;20816;50.950;11.108;2022-12-05T05:44:00;7.77;;;4.80;;
34585;SDS011;20816;50.950;11.108;2022-12-05T05:46:28;8.37;;;4.53;;
34585;SDS011;20816;50.950;11.108;2022-12-05T05:48:56;8.00;;;5.93;;
34585;SDS011;20816;50.950;11.108;2022-12-05T05:51:23;9.60;;;4.90;;
34585;SDS011;20816;50.950;11.108;2022-12-05T05:53:55;9.00;;;5.03;;
34585;SDS011;20816;50.950;11.108;2022-12-05T05:56:22;10.13;;;5.43;;
34585;SDS011;20816;50.950;11.108;2022-12-05T05:58:56;7.70;;;4.37;;
34585;SDS011;20816;50.950;11.108;2022-12-05T06:01:25;10.27;;;5.87;;
34585;SDS011;20816;50.950;11.108;2022-12-05T06:03:52;8.47;;;4.50;;
34585;SDS011;20816;50.950;11.108;2022-12-05T06:06:20;10.37;;;5.57;;
34585;SDS011;20816;50.950;11.108;2022-12-05T06:08:47;10.13;;;4.53;;
34585;SDS011;20816;50.950;11.108;2022-12-05T06:11:15;6.23;;;3.97;;
34585;SDS011;20816;50.950;11.108;2022-12-05T06:13:50;6.77;;;4.23;;
34585;SDS011;20816;50.950;11.108;2022-12-05T06:16:17;5.73;;;3.70;;
34585;SDS011;20816;50.950;11.108;2022-12-05T06:18:44;8.87;;;4.27;;
34585;SDS011;20816;50.950;11.108;2022-12-05T06:21:11;6.23;;;4.47;;
34585;SDS011;20816;50.950;11.108;2022-12-05T06:23:41;6.97;;;4.27;;
34585;SDS011;20816;50.950;11.108;2022-12-05T06:26:12;8.73;;;4.53;;
34585;SDS011;20816;50.950;11.108;2022-12-05T06:28:41;7.03;;;4.57;;
34585;SDS011;20816;50.950;11.108;2022-12-05T06:31:18;6.17;;;4.70;;
34585;SDS011;20816;50.950;11.108;2022-12-05T06:33:47;8.17;;;4.77;;
34585;SDS011;20816;50.950;11.108;2022-12-05T06:36:16;9.03;;;4.30;;
34585;SDS011;20816;50.950;11.108;2022-12-05T06:38:45;5.13;;;3.67;;
34585;SDS011;20816;50.950;11.108;2022-12-05T06:41:15;6.03;;;4.10;;
34585;SDS011;20816;50.950;11.108;2022-12-05T06:43:43;5.47;;;3.67;;
34585;SDS011;20816;50.950;11.108;2022-12-05T06:46:11;6.67;;;4.07;;
34585;SDS011;20816;50.950;11.108;2022-12-05T06:48:39;5.47;;;3.77;;
34585;SDS011;20816;50.950;11.108;2022-12-05T06:51:08;9.30;;;5.43;;
34585;SDS011;20816;50.950;11.108;2022-12-05T06:53:36;8.03;;;5.03;;
34585;SDS011;20816;50.950;11.108;2022-12-05T06:56:04;7.63;;;4.97;;
34585;SDS011;20816;50.950;11.108;2022-12-05T06:58:33;4.73;;;3.57;;
34585;SDS011;20816;50.950;11.108;2022-12-05T07:01:00;10.70;;;5.60;;
34585;SDS011;20816;50.950;11.108;2022-12-05T07:03:47;7.27;;;3.53;;
34585;SDS011;20816;50.950;11.108;2022-12-05T07:06:14;6.97;;;4.87;;
34585;SDS011;20816;50.950;11.108;2022-12-05T07:08:42;7.83;;;4.23;;
34585;SDS011;20816;50.950;11.108;2022-12-05T07:11:08;9.67;;;4.43;;
34585;SDS011;20816;50.950;11.108;2022-12-05T07:13:35;6.23;;;3.70;;
34585;SDS011;20816;50.950;11.108;2022-12-05T07:16:02;8.00;;;4.27;;
34585;SDS011;20816;50.950;11.108;2022-12-05T07:18:32;5.67;;;4.17;;
34585;SDS011;20816;50.950;11.108;2022-12-05T07:21:00;6.53;;;4.30;;
34585;SDS011;20816;50.950;11.108;2022-12-05T07:23:40;8.87;;;5.27;;
34585;SDS011;20816;50.950;11.108;2022-12-05T07:26:08;7.47;;;4.70;;
34585;SDS011;20816;50.950;11.108;2022-12-05T07:28:38;6.57;;;4.13;;
34585;SDS011;20816;50.950;11.108;2022-12-05T07:31:06;7.63;;;4.70;;
34585;SDS011;20816;50.950;11.108;2022-12-05T07:33:34;7.27;;;3.77;;
34585;SDS011;20816;50.950;11.108;2022-12-05T07:36:02;8.47;;;5.87;;
34585;SDS011;20816;50.950;11.108;2022-12-05T07:38:31;7.40;;;5.00;;
34585;SDS011;20816;50.950;11.108;2022-12-05T07:40:58;10.73;;;4.93;;
34585;SDS011;20816;50.950;11.108;2022-12-05T07:43:25;8.07;;;4.33;;
34585;SDS011;20816;50.950;11.108;2022-12-05T07:45:51;11.93;;;5.17;;
34585;SDS011;20816;50.950;11.108;2022-12-05T07:48:18;8.43;;;5.97;;
34585;SDS011;20816;50.950;11.108;2022-12-05T07:50:45;7.63;;;4.77;;
34585;SDS011;20816;50.950;11.108;2022-12-05T07:53:15;8.07;;;5.43;;
34585;SDS011;20816;50.950;11.108;2022-12-05T07:55:41;16.17;;;5.17;;
34585;SDS011;20816;50.950;11.108;2022-12-05T07:58:08;7.67;;;4.63;;
34585;SDS011;20816;50.950;11.108;2022-12-05T08:00:34;7.10;;;4.90;;
34585;SDS011;20816;50.950;11.108;2022-12-05T08:03:01;7.33;;;5.03;;
34585;SDS011;20816;50.950;11.108;2022-12-05T08:05:29;8.97;;;4.30;;
34585;SDS011;20816;50.950;11.108;2022-12-05T08:07:55;10.03;;;6.23;;
34585;SDS011;20816;50.950;11.108;2022-12-05T08:10:22;9.10;;;4.73;;
34585;SDS011;20816;50.950;11.108;2022-12-05T08:12:50;11.27;;;5.33;;
34585;SDS011;20816;50.950;11.108;2022-12-05T08:15:16;9.00;;;4.37;;
34585;SDS011;20816;50.950;11.108;2022-12-05T08:17:43;9.37;;;5.27;;
34585;SDS011;20816;50.950;11.108;2022-12-05T08:20:10;10.40;;;5.33;;
34585;SDS011;20816;50.950;11.108;2022-12-05T08:22:37;6.80;;;4.77;;
34585;SDS011;20816;50.950;11.108;2022-12-05T08:25:04;9.67;;;4.53;;
34585;SDS011;20816;50.950;11.108;2022-12-05T08:27:30;11.47;;;5.30;;
34585;SDS011;20816;50.950;11.108;2022-12-05T08:29:57;12.73;;;6.60;;
34585;SDS011;20816;50.950;11.108;2022-12-05T08:32:24;13.50;;;5.67;;
34585;SDS011;20816;50.950;11.108;2022-12-05T08:34:52;7.37;;;5.03;;
34585;SDS011;20816;50.950;11.108;2022-12-05T08:37:19;9.13;;;5.67;;
34585;SDS011;20816;50.950;11.108;2022-12-05T08:39:46;7.77;;;4.47;;
34585;SDS011;20816;50.950;11.108;2022-12-05T08:42:13;10.00;;;5.20;;
34585;SDS011;20816;50.950;11.108;2022-12-05T08:44:40;6.97;;;4.50;;
34585;SDS011;20816;50.950;11.108;2022-12-05T08:47:07;8.10;;;4.60;;
34585;SDS011;20816;50.950;11.108;2022-12-05T08:49:33;8.63;;;4.60;;
34585;SDS011;20816;50.950;11.108;2022-12-05T08:52:00;10.23;;;5.33;;
34585;SDS011;20816;50.950;11.108;2022-12-05T08:54:27;7.07;;;4.43;;
34585;SDS011;20816;50.950;11.108;2022-12-05T08:56:53;9.90;;;5.10;;
34585;SDS011;20816;50.950;11.108;2022-12-05T08:59:20;11.57;;;4.53;;
34585;SDS011;20816;50.950;11.108;2022-12-05T09:01:48;7.57;;;5.17;;
34585;SDS011;20816;50.950;11.108;2022-12-05T09:04:15;16.87;;;6.53;;
34585;SDS011;20816;50.950;11.108;2022-12-05T09:06:42;7.27;;;5.23;;
34585;SDS011;20816;50.950;11.108;2022-12-05T09:09:09;6.87;;;4.97;;
34585;SDS011;20816;50.950;11.108;2022-12-05T09:11:38;7.53;;;4.33;;
34585;SDS011;20816;50.950;11.108;2022-12-05T09:14:12;8.83;;;4.23;;
34585;SDS011;20816;50.950;11.108;2022-12-05T09:16:39;8.03;;;5.07;;
34585;SDS011;20816;50.950;11.108;2022-12-05T09:19:10;9.40;;;4.67;;
34585;SDS011;20816;50.950;11.108;2022-12-05T09:21:39;6.10;;;5.00;;
34585;SDS011;20816;50.950;11.108;2022-12-05T09:24:08;7.83;;;4.80;;
34585;SDS011;20816;50.950;11.108;2022-12-05T09:26:35;9.43;;;4.50;;
34585;SDS011;20816;50.950;11.108;2022-12-05T09:29:02;7.37;;;4.37;;
34585;SDS011;20816;50.950;11.108;2022-12-05T09:31:29;11.67;;;5.90;;
34585;SDS011;20816;50.950;11.108;2022-12-05T09:33:56;8.03;;;4.87;;
34585;SDS011;20816;50.950;11.108;2022-12-05T09:36:27;9.33;;;4.97;;
34585;SDS011;20816;50.950;11.108;2022-12-05T09:38:58;10.93;;;5.73;;
34585;SDS011;20816;50.950;11.108;2022-12-05T09:50:44;8.10;;;5.13;;
34585;SDS011;20816;50.950;11.108;2022-12-05T09:55:32;10.23;;;5.83;;
34585;SDS011;20816;50.950;11.108;2022-12-05T09:58:14;10.77;;;5.03;;
34585;SDS011;20816;50.950;11.108;2022-12-05T10:01:03;11.47;;;5.23;;
34585;SDS011;20816;50.950;11.108;2022-12-05T10:06:28;11.73;;;5.50;;
34585;SDS011;20816;50.950;11.108;2022-12-05T10:09:21;7.60;;;4.57;;
34585;SDS011;20816;50.950;11.108;2022-12-05T10:17:27;8.40;;;5.23;;
34585;SDS011;20816;50.950;11.108;2022-12-05T10:19:58;10.73;;;5.37;;
34585;SDS011;20816;50.950;11.108;2022-12-05T10:22:31;9.33;;;5.33;;
34585;SDS011;20816;50.950;11.108;2022-12-05T10:25:09;6.80;;;5.07;;
34585;SDS011;20816;50.950;11.108;2022-12-05T10:27:41;10.10;;;6.03;;
34585;SDS011;20816;50.950;11.108;2022-12-05T10:30:15;15.27;;;5.47;;
34585;SDS011;20816;50.950;11.108;2022-12-05T10:32:48;8.73;;;5.00;;
34585;SDS011;20816;50.950;11.108;2022-12-05T10:35:25;10.47;;;4.97;;
34585;SDS011;20816;50.950;11.108;2022-12-05T10:38:11;9.20;;;5.37;;
34585;SDS011;20816;50.950;11.108;2022-12-05T10:40:44;8.17;;;4.07;;
34585;SDS011;20816;50.950;11.108;2022-12-05T10:43:15;12.40;;;6.00;;
34585;SDS011;20816;50.950;11.108;2022-12-05T10:45:54;8.67;;;5.40;;
34585;SDS011;20816;50.950;11.108;2022-12-05T10:48:21;8.10;;;4.67;;
34585;SDS011;20816;50.950;11.108;2022-12-05T10:50:53;10.73;;;5.37;;
34585;SDS011;20816;50.950;11.108;2022-12-05T10:53:40;8.20;;;4.77;;
34585;SDS011;20816;50.950;11.108;2022-12-05T10:59:09;9.50;;;4.37;;
34585;SDS011;20816;50.950;11.108;2022-12-05T11:01:48;8.50;;;4.93;;
34585;SDS011;20816;50.950;11.108;2022-12-05T11:04:22;8.60;;;4.57;;
34585;SDS011;20816;50.950;11.108;2022-12-05T11:07:03;6.53;;;4.37;;
34585;SDS011;20816;50.950;11.108;2022-12-05T11:09:37;7.43;;;4.80;;
34585;SDS011;20816;50.950;11.108;2022-12-05T11:12:19;12.57;;;5.30;;
34585;SDS011;20816;50.950;11.108;2022-12-05T11:17:47;10.27;;;5.07;;
34585;SDS011;20816;50.950;11.108;2022-12-05T11:22:46;6.63;;;4.27;;
34585;SDS011;20816;50.950;11.108;2022-12-05T11:27:49;5.53;;;4.17;;
34585;SDS011;20816;50.950;11.108;2022-12-05T11:30:23;7.53;;;4.40;;
34585;SDS011;20816;50.950;11.108;2022-12-05T11:35:46;9.50;;;4.50;;
34585;SDS011;20816;50.950;11.108;2022-12-05T11:38:13;10.43;;;5.50;;
34585;SDS011;20816;50.950;11.108;2022-12-05T11:45:48;8.23;;;4.17;;
34585;SDS011;20816;50.950;11.108;2022-12-05T12:08:28;8.37;;;5.47;;
34585;SDS011;20816;50.950;11.108;2022-12-05T12:24:21;9.17;;;4.40;;
34585;SDS011;20816;50.950;11.108;2022-12-05T12:30:10;5.93;;;4.03;;
34585;SDS011;20816;50.950;11.108;2022-12-05T12:35:43;11.67;;;6.20;;
34585;SDS011;20816;50.950;11.108;2022-12-05T12:47:10;7.73;;;5.30;;
34585;SDS011;20816;50.950;11.108;2022-12-05T12:52:29;10.30;;;4.57;;
34585;SDS011;20816;50.950;11.108;2022-12-05T12:55:28;9.63;;;5.17;;
34585;SDS011;20816;50.950;11.108;2022-12-05T13:00:59;8.73;;;5.17;;
34585;SDS011;20816;50.950;11.108;2022-12-05T13:03:41;15.87;;;6.23;;
34585;SDS011;20816;50.950;11.108;2022-12-05T13:06:38;9.40;;;5.57;;
34585;SDS011;20816;50.950;11.108;2022-12-05T13:12:27;10.20;;;6.20;;
34585;SDS011;20816;50.950;11.108;2022-12-05T13:14:57;9.07;;;5.93;;
34585;SDS011;20816;50.950;11.108;2022-12-05T13:17:29;13.27;;;6.43;;
34585;SDS011;20816;50.950;11.108;2022-12-05T13:19:57;13.70;;;6.37;;
34585;SDS011;20816;50.950;11.108;2022-12-05T13:22:26;14.77;;;6.83;;
34585;SDS011;20816;50.950;11.108;2022-12-05T13:24:54;12.20;;;8.97;;
34585;SDS011;20816;50.950;11.108;2022-12-05T13:27:22;15.20;;;9.37;;
34585;SDS011;20816;50.950;11.108;2022-12-05T13:29:54;11.57;;;7.10;;
34585;SDS011;20816;50.950;11.108;2022-12-05T13:38:27;14.63;;;7.73;;
34585;SDS011;20816;50.950;11.108;2022-12-05T13:41:14;10.73;;;6.80;;
34585;SDS011;20816;50.950;11.108;2022-12-05T13:44:00;9.97;;;5.43;;
34585;SDS011;20816;50.950;11.108;2022-12-05T13:46:32;9.03;;;4.77;;
34585;SDS011;20816;50.950;11.108;2022-12-05T13:49:13;8.87;;;6.17;;
34585;SDS011;20816;50.950;11.108;2022-12-05T13:51:43;13.70;;;6.57;;
34585;SDS011;20816;50.950;11.108;2022-12-05T13:54:13;9.17;;;5.70;;
34585;SDS011;20816;50.950;11.108;2022-12-05T13:56:54;9.60;;;5.87;;
34585;SDS011;20816;50.950;11.108;2022-12-05T14:12:59;11.37;;;4.80;;
34585;SDS011;20816;50.950;11.108;2022-12-05T14:15:47;7.60;;;5.47;;
34585;SDS011;20816;50.950;11.108;2022-12-05T14:20:51;9.53;;;4.43;;
34585;SDS011;20816;50.950;11.108;2022-12-05T14:34:13;6.73;;;4.33;;
34585;SDS011;20816;50.950;11.108;2022-12-05T14:36:51;6.93;;;4.33;;
34585;SDS011;20816;50.950;11.108;2022-12-05T14:39:31;8.70;;;4.57;;
34585;SDS011;20816;50.950;11.108;2022-12-05T14:42:03;5.73;;;4.03;;
34585;SDS011;20816;50.950;11.108;2022-12-05T14:44:46;8.23;;;4.63;;
34585;SDS011;20816;50.950;11.108;2022-12-05T14:47:19;9.03;;;4.00;;
34585;SDS011;20816;50.950;11.108;2022-12-05T14:52:24;6.00;;;4.43;;
34585;SDS011;20816;50.950;11.108;2022-12-05T14:55:00;8.50;;;5.73;;
34585;SDS011;20816;50.950;11.108;2022-12-05T14:57:31;9.43;;;5.07;;
34585;SDS011;20816;50.950;11.108;2022-12-05T15:00:05;11.57;;;6.30;;
34585;SDS011;20816;50.950;11.108;2022-12-05T15:02:35;11.30;;;5.83;;
34585;SDS011;20816;50.950;11.108;2022-12-05T15:05:29;8.83;;;5.47;;
34585;SDS011;20816;50.950;11.108;2022-12-05T15:07:57;8.40;;;5.93;;
34585;SDS011;20816;50.950;11.108;2022-12-05T15:10:32;9.03;;;6.67;;
34585;SDS011;20816;50.950;11.108;2022-12-05T15:13:11;11.93;;;7.40;;
34585;SDS011;20816;50.950;11.108;2022-12-05T15:15:41;20.00;;;8.20;;
34585;SDS011;20816;50.950;11.108;2022-12-05T15:20:58;11.47;;;6.97;;
34585;SDS011;20816;50.950;11.108;2022-12-05T15:26:18;10.27;;;6.03;;
34585;SDS011;20816;50.950;11.108;2022-12-05T15:31:49;12.07;;;6.93;;
34585;SDS011;20816;50.950;11.108;2022-12-05T15:34:17;15.57;;;6.77;;
34585;SDS011;20816;50.950;11.108;2022-12-05T15:36:51;13.27;;;7.40;;
34585;SDS011;20816;50.950;11.108;2022-12-05T15:39:23;12.23;;;6.67;;
34585;SDS011;20816;50.950;11.108;2022-12-05T15:41:52;10.40;;;6.70;;
34585;SDS011;20816;50.950;11.108;2022-12-05T15:44:19;6.93;;;4.93;;
34585;SDS011;20816;50.950;11.108;2022-12-05T15:46:54;10.00;;;6.33;;
34585;SDS011;20816;50.950;11.108;2022-12-05T15:51:52;10.73;;;6.03;;
34585;SDS011;20816;50.950;11.108;2022-12-05T15:54:43;10.13;;;5.03;;
34585;SDS011;20816;50.950;11.108;2022-12-05T15:57:21;12.20;;;6.57;;
34585;SDS011;20816;50.950;11.108;2022-12-05T16:00:02;7.80;;;5.97;;
34585;SDS011;20816;50.950;11.108;2022-12-05T16:05:04;10.57;;;5.53;;
34585;SDS011;20816;50.950;11.108;2022-12-05T16:07:42;9.50;;;5.17;;
34585;SDS011;20816;50.950;11.108;2022-12-05T16:10:13;11.10;;;5.83;;
34585;SDS011;20816;50.950;11.108;2022-12-05T16:12:41;11.40;;;5.43;;
34585;SDS011;20816;50.950;11.108;2022-12-05T16:15:25;10.43;;;5.90;;
34585;SDS011;20816;50.950;11.108;2022-12-05T16:17:54;8.13;;;5.37;;
34585;SDS011;20816;50.950;11.108;2022-12-05T16:20:24;9.47;;;5.47;;
34585;SDS011;20816;50.950;11.108;2022-12-05T16:22:55;8.23;;;5.70;;
34585;SDS011;20816;50.950;11.108;2022-12-05T16:25:35;7.93;;;5.57;;
34585;SDS011;20816;50.950;11.108;2022-12-05T16:30:29;9.77;;;6.37;;
34585;SDS011;20816;50.950;11.108;2022-12-05T16:32:57;12.00;;;6.97;;
34585;SDS011;20816;50.950;11.108;2022-12-05T16:38:39;8.70;;;5.73;;
34585;SDS011;20816;50.950;11.108;2022-12-05T16:40:58;12.03;;;4.37;;
34585;SDS011;20816;50.950;11.108;2022-12-05T16:43:39;10.63;;;5.60;;
34585;SDS011;20816;50.950;11.108;2022-12-05T16:48:42;6.63;;;3.57;;
34585;SDS011;20816;50.950;11.108;2022-12-05T16:51:21;4.90;;;3.03;;
34585;SDS011;20816;50.950;11.108;2022-12-05T16:53:53;3.47;;;2.97;;
34585;SDS011;20816;50.950;11.108;2022-12-05T16:58:52;5.00;;;3.17;;
34585;SDS011;20816;50.950;11.108;2022-12-05T17:01:23;5.63;;;3.60;;
34585;SDS011;20816;50.950;11.108;2022-12-05T17:03:52;6.57;;;4.07;;
34585;SDS011;20816;50.950;11.108;2022-12-05T17:06:20;6.07;;;4.37;;
34585;SDS011;20816;50.950;11.108;2022-12-05T17:08:49;7.83;;;4.70;;
34585;SDS011;20816;50.950;11.108;2022-12-05T17:11:18;6.17;;;3.97;;
34585;SDS011;20816;50.950;11.108;2022-12-05T17:13:45;6.57;;;4.13;;
34585;SDS011;20816;50.950;11.108;2022-12-05T17:16:14;8.97;;;5.13;;
34585;SDS011;20816;50.950;11.108;2022-12-05T17:18:43;7.33;;;5.70;;
34585;SDS011;20816;50.950;11.108;2022-12-05T17:21:11;8.67;;;4.47;;
34585;SDS011;20816;50.950;11.108;2022-12-05T17:23:41;8.80;;;5.70;;
34585;SDS011;20816;50.950;11.108;2022-12-05T17:26:14;9.10;;;5.33;;
34585;SDS011;20816;50.950;11.108;2022-12-05T17:28:43;10.93;;;4.90;;
34585;SDS011;20816;50.950;11.108;2022-12-05T17:31:14;9.50;;;4.30;;
34585;SDS011;20816;50.950;11.108;2022-12-05T17:33:43;7.83;;;4.63;;
34585;SDS011;20816;50.950;11.108;2022-12-05T17:36:10;5.67;;;4.00;;
34585;SDS011;20816;50.950;11.108;2022-12-05T17:38:37;9.60;;;5.03;;
34585;SDS011;20816;50.950;11.108;2022-12-05T17:41:04;6.20;;;4.17;;
34585;SDS011;20816;50.950;11.108;2022-12-05T17:43:32;8.93;;;4.67;;
34585;SDS011;20816;50.950;11.108;2022-12-05T17:45:59;8.20;;;4.53;;
34585;SDS011;20816;50.950;11.108;2022-12-05T17:48:27;8.53;;;5.50;;
34585;SDS011;20816;50.950;11.108;2022-12-05T17:50:54;7.33;;;4.63;;
34585;SDS011;20816;50.950;11.108;2022-12-05T17:53:23;6.67;;;4.03;;
34585;SDS011;20816;50.950;11.108;2022-12-05T17:55:50;3.97;;;3.57;;
34585;SDS011;20816;50.950;11.108;2022-12-05T17:58:17;9.20;;;4.10;;
34585;SDS011;20816;50.950;11.108;2022-12-05T18:00:44;8.63;;;4.67;;
34585;SDS011;20816;50.950;11.108;2022-12-05T18:03:13;6.93;;;4.30;;
34585;SDS011;20816;50.950;11.108;2022-12-05T18:05:41;7.23;;;3.80;;
34585;SDS011;20816;50.950;11.108;2022-12-05T18:08:09;8.83;;;4.83;;
34585;SDS011;20816;50.950;11.108;2022-12-05T18:10:39;7.77;;;3.87;;
34585;SDS011;20816;50.950;11.108;2022-12-05T18:13:08;5.93;;;3.73;;
34585;SDS011;20816;50.950;11.108;2022-12-05T18:15:35;8.57;;;4.23;;
34585;SDS011;20816;50.950;11.108;2022-12-05T18:18:10;8.53;;;4.77;;
34585;SDS011;20816;50.950;11.108;2022-12-05T18:20:39;4.40;;;3.77;;